Terminal Aerodrome Forecast
Issued by NWS

Home | Current Version | Previous Version | Text Only | Print | Product List | Glossary On
Versions: 1 2 3 4 5 6 7 8 9 10 11 12 13 14 15 16
700
FTUS41 KPHI 252036 AAA
TAFPNE
TAF AMD
KPNE 252036Z 2521/2618 36005KT P6SM -SHRA OVC070
      TEMPO 2521/2522 5SM -SHRA OVC050
     FM252200 01008KT P6SM BKN050
     FM260000 05008KT P6SM BKN035
     FM260300 06010KT P6SM OVC025
     FM260500 06012KT 6SM BR OVC015
     FM261000 07012KT 5SM -DZ BR OVC010=

USA.gov is the U.S. government's official web portal to all federal, state and local government web resources and services.